»·PEaware :: N13686 KSMF-KOAK

N13686 :: KSMF-KOAK

FLIGHT INFORMATION

Flight Status: Arrived
Operator: Privately registered:
United States
More flights under this callsign
Pilot: Hootan S. (33886)
Aircraft: CESSNA 172 SKYHAWK
(C172)
More flights by this aircraft type
Origin: KSMF Sacramento Intl
United States
Destination: KOAK Metro Oakland Intl
United States
More flights between these airports :: More routes between these airports
Route: SAC V334 SUNOL
File this flight plan on PilotEdge
Remarks:
Altitude:
(Current/Filed)
6,000ft
Speed:
(Current/Filed)
110kts
Departed: 22-Feb-21 08:28 PM
Arrived: 22-Feb-21 09:10 PM
Distance/Time
Traveled:
65nm/0:42
Distance/Time
To Go:
Arrived

Flight Plot

Page will automatically refresh every two minutes.

Flight plan parsing failed; only flown route is shown


Map Options




Map Legend


Flown Route
Filed Route
Departure Airport
Arrival Airport
Navaid (VOR, NDB)
Fix

Horizontal Profiles

Position Reports

Time Latitude Longitude Heading Altitude Ground
Speed
22-Feb-21 20:04 38.695114 -121.596282 89 23ft 0kts
22-Feb-21 20:05 38.695114 -121.596282 89 23ft 0kts
22-Feb-21 20:06 38.695114 -121.596282 89 23ft 0kts
22-Feb-21 20:07 38.695114 -121.596282 89 23ft 0kts
22-Feb-21 20:08 38.695114 -121.596282 89 23ft 0kts
22-Feb-21 20:09 38.695114 -121.596282 89 23ft 0kts
22-Feb-21 20:10 38.695114 -121.596282 89 23ft 0kts
22-Feb-21 20:11 38.695114 -121.596282 89 23ft 0kts
22-Feb-21 20:12 38.695114 -121.596282 89 23ft 0kts
22-Feb-21 20:13 38.695114 -121.596282 89 23ft 0kts
22-Feb-21 20:14 38.695114 -121.596282 89 23ft 0kts
22-Feb-21 20:15 38.695114 -121.596282 89 23ft 0kts
22-Feb-21 20:16 38.695114 -121.596282 89 23ft 0kts
22-Feb-21 20:17 38.695114 -121.596282 89 23ft 0kts
22-Feb-21 20:18 38.695114 -121.596282 89 23ft 0kts
22-Feb-21 20:19 38.694859 -121.595920 138 23ft 5kts
22-Feb-21 20:20 38.693799 -121.595848 211 23ft 14kts
22-Feb-21 20:21 38.692191 -121.597921 237 23ft 10kts
22-Feb-21 20:22 38.697349 -121.598627 2 23ft 23kts
22-Feb-21 20:23 38.703202 -121.598597 354 23ft 11kts
22-Feb-21 20:24 38.704969 -121.598499 0 23ft 11kts
22-Feb-21 20:25 38.707187 -121.599373 270 23ft 5kts
22-Feb-21 20:26 38.707190 -121.599717 269 23ft 3kts
22-Feb-21 20:27 38.699084 -121.601114 180 142ft 83kts
22-Feb-21 20:28 38.680948 -121.588097 128 1186ft 83kts
22-Feb-21 20:29 38.659985 -121.575118 151 2133ft 87kts
22-Feb-21 20:30 38.643233 -121.552223 131 3028ft 89kts
22-Feb-21 20:31 38.625587 -121.528467 133 3891ft 90kts
22-Feb-21 20:32 38.602378 -121.528035 202 4699ft 85kts
22-Feb-21 20:33 38.582716 -121.534944 183 5528ft 61kts
22-Feb-21 20:34 38.562935 -121.533728 194 6097ft 73kts
22-Feb-21 20:35 38.532198 -121.539413 188 5971ft 141kts
22-Feb-21 20:36 38.491029 -121.544793 186 5998ft 135kts
22-Feb-21 20:37 38.450450 -121.549593 187 5996ft 127kts
22-Feb-21 20:38 38.414050 -121.559778 195 5999ft 120kts
22-Feb-21 20:39 38.378615 -121.570700 196 5999ft 119kts
22-Feb-21 20:40 38.343352 -121.581633 196 5999ft 118kts
22-Feb-21 20:41 38.308182 -121.592542 196 5998ft 118kts
22-Feb-21 20:42 38.272944 -121.603465 196 5998ft 118kts
22-Feb-21 20:43 38.237398 -121.614472 197 5997ft 118kts
22-Feb-21 20:44 38.202229 -121.625352 197 5997ft 117kts
22-Feb-21 20:45 38.166828 -121.636290 197 5998ft 117kts
22-Feb-21 20:46 38.132999 -121.646734 197 5999ft 118kts
22-Feb-21 20:47 38.097904 -121.657552 197 5999ft 120kts
22-Feb-21 20:48 38.062475 -121.668467 197 5999ft 120kts
22-Feb-21 20:49 38.027256 -121.679323 196 6000ft 122kts
22-Feb-21 20:50 37.991452 -121.690349 195 6000ft 124kts
22-Feb-21 20:51 37.956011 -121.701738 195 6000ft 126kts
22-Feb-21 20:52 37.920215 -121.713047 193 5986ft 128kts
22-Feb-21 20:53 37.881075 -121.725102 193 5242ft 139kts
22-Feb-21 20:54 37.847975 -121.753474 229 4483ft 139kts
22-Feb-21 20:55 37.821255 -121.791628 232 3746ft 138kts
22-Feb-21 20:56 37.803456 -121.829773 256 3941ft 99kts
22-Feb-21 20:57 37.794592 -121.867965 256 3995ft 116kts
22-Feb-21 20:58 37.784571 -121.909411 255 3994ft 119kts
22-Feb-21 20:59 37.771081 -121.950075 235 3898ft 126kts
22-Feb-21 21:00 37.748040 -121.984053 235 3569ft 122kts
22-Feb-21 21:01 37.731252 -122.021858 246 3187ft 114kts
22-Feb-21 21:02 37.719213 -122.057394 255 2640ft 105kts
22-Feb-21 21:03 37.708111 -122.089331 250 2033ft 86kts
22-Feb-21 21:04 37.701575 -122.115803 259 1579ft 68kts
22-Feb-21 21:05 37.702617 -122.141802 292 1265ft 97kts
22-Feb-21 21:06 37.713448 -122.170283 293 624ft 73kts
22-Feb-21 21:07 37.720510 -122.191957 293 291ft 69kts
22-Feb-21 21:08 37.727792 -122.213743 291 7ft 45kts
22-Feb-21 21:09 37.729465 -122.213182 27 7ft 0kts
22-Feb-21 21:10 37.729465 -122.213182 27 7ft 0kts

Navigation Log

Ident Type
Flight plan parsing failed, navigation log unavailable